createdAt,value
2018-06-17T00:00:35.537Z,61.78
2018-06-17T00:03:05.388Z,61.15
2018-06-17T00:05:35.789Z,61.78
2018-06-17T00:08:06.759Z,62.25
2018-06-17T00:10:36.863Z,61.73
2018-06-17T00:13:07.072Z,61.62
2018-06-17T00:15:36.825Z,60.79
2018-06-17T00:18:06.505Z,61.45
2018-06-17T00:20:37.144Z,62.76
2018-06-17T00:23:06.847Z,62.33
2018-06-17T00:25:37.027Z,61.91
2018-06-17T00:28:06.768Z,61.02
2018-06-17T00:30:36.595Z,61.46
2018-06-17T00:33:06.151Z,60.61
2018-06-17T00:35:36.685Z,59.49
2018-06-17T00:38:06.617Z,60.92
2018-06-17T00:40:36.467Z,61.52
2018-06-17T00:43:07.468Z,61.75
2018-06-17T00:45:37.226Z,62.15
2018-06-17T00:48:06.740Z,62.47
2018-06-17T00:50:40.927Z,62.04
2018-06-17T00:53:14.710Z,63.16
2018-06-17T00:55:44.862Z,62.73
2018-06-17T00:58:15.348Z,63.48
2018-06-17T01:00:45.862Z,62.72
2018-06-17T01:03:16.186Z,62.11
2018-06-17T01:05:46.988Z,61.53
2018-06-17T01:08:17.740Z,62.49
2018-06-17T01:10:48.616Z,62.00
2018-06-17T01:13:19.853Z,61.68
2018-06-17T01:15:49.654Z,62.09
2018-06-17T01:18:19.478Z,60.87
2018-06-17T01:20:50.707Z,61.82
2018-06-17T01:23:21.481Z,62.67
2018-06-17T01:25:51.381Z,62.84
2018-06-17T01:28:21.178Z,64.12
2018-06-17T01:33:30.453Z,64.20
2018-06-17T01:36:00.300Z,64.17
2018-06-17T01:38:30.680Z,63.91
2018-06-17T01:41:01.509Z,64.59
2018-06-17T01:43:33.359Z,64.32
2018-06-17T01:46:03.961Z,64.82
2018-06-17T01:48:38.208Z,65.88
2018-06-17T01:51:09.715Z,65.01
2018-06-17T01:53:39.561Z,64.84
2018-06-17T01:56:10.242Z,64.45
2018-06-17T01:58:44.266Z,64.54
2018-06-17T02:01:14.233Z,64.52
2018-06-17T02:03:49.786Z,63.99
2018-06-17T02:06:24.865Z,64.96
2018-06-17T02:09:00.069Z,64.83
2018-06-17T02:11:36.006Z,64.35
2018-06-17T02:14:11.823Z,64.48
2018-06-17T02:16:43.158Z,64.73
2018-06-17T02:19:14.947Z,64.06
2018-06-17T02:21:47.023Z,63.64
2018-06-17T02:24:17.427Z,64.74
2018-06-17T02:26:48.114Z,65.06
2018-06-17T02:29:19.840Z,64.32
2018-06-17T02:31:49.800Z,65.43
2018-06-17T02:34:19.597Z,65.92
2018-06-17T02:36:49.109Z,65.05
2018-06-17T02:39:18.700Z,64.86
2018-06-17T02:44:26.584Z,64.67
2018-06-17T02:47:02.581Z,64.98
2018-06-17T02:49:35.987Z,64.71
2018-06-17T02:52:12.654Z,63.52
2018-06-17T02:54:48.635Z,63.47
2018-06-17T02:57:20.345Z,64.45
2018-06-17T02:59:50.306Z,63.75
2018-06-17T03:02:20.165Z,63.20
2018-06-17T03:04:50.006Z,64.83
2018-06-17T03:07:20.280Z,64.80
2018-06-17T03:09:50.220Z,64.35
2018-06-17T03:12:20.309Z,65.06
2018-06-17T03:14:53.420Z,65.40
2018-06-17T03:17:23.393Z,65.29
2018-06-17T03:19:53.268Z,64.66
2018-06-17T03:22:23.973Z,64.45
2018-06-17T03:24:58.348Z,64.55
2018-06-17T03:27:33.253Z,65.93
2018-06-17T03:30:09.773Z,64.88
2018-06-17T03:32:44.637Z,65.12
2018-06-17T03:35:20.361Z,67.22
2018-06-17T03:37:50.627Z,65.82
2018-06-17T03:40:21.353Z,64.55
2018-06-17T03:42:52.955Z,64.33
2018-06-17T03:45:22.770Z,64.21
2018-06-17T03:47:53.581Z,63.57
2018-06-17T03:50:23.296Z,63.63
2018-06-17T03:52:55.755Z,64.72
2018-06-17T03:55:25.927Z,64.75
2018-06-17T03:57:55.740Z,64.58
2018-06-17T04:00:25.567Z,62.85
2018-06-17T04:02:56.266Z,62.12
2018-06-17T04:05:29.913Z,61.74
2018-06-17T04:08:00.936Z,61.71
2018-06-17T04:10:30.350Z,62.27
2018-06-17T04:13:00.858Z,62.78
2018-06-17T04:15:30.560Z,62.25
2018-06-17T04:18:00.240Z,62.01
2018-06-17T04:20:30.040Z,62.23
2018-06-17T04:22:59.881Z,61.70
2018-06-17T04:25:29.646Z,61.32
2018-06-17T04:27:59.425Z,61.04
2018-06-17T04:30:34.849Z,60.85
2018-06-17T04:33:04.541Z,59.88
2018-06-17T04:35:34.233Z,59.96
2018-06-17T04:38:04.293Z,59.83
2018-06-17T04:40:34.060Z,57.88
2018-06-17T04:43:03.774Z,57.62
2018-06-17T04:45:33.830Z,59.55
2018-06-17T04:48:03.546Z,58.77
2018-06-17T04:50:33.413Z,59.44
2018-06-17T04:53:03.281Z,58.19
2018-06-17T04:55:32.989Z,57.95
2018-06-17T04:58:02.920Z,58.51
2018-06-17T05:00:35.582Z,57.06
2018-06-17T05:03:05.467Z,56.66
2018-06-17T05:05:35.305Z,56.27
2018-06-17T05:08:05.140Z,57.14
2018-06-17T05:10:34.840Z,55.96
2018-06-17T05:13:04.647Z,55.74
2018-06-17T05:15:34.413Z,55.47
2018-06-17T05:18:04.197Z,55.26
2018-06-17T05:23:09.749Z,55.97
2018-06-17T05:25:39.430Z,53.65
2018-06-17T05:28:09.115Z,54.55
2018-06-17T05:35:51.196Z,54.14
2018-06-17T05:38:21.592Z,52.98
2018-06-17T05:40:51.394Z,53.72
2018-06-17T05:43:21.449Z,53.17
2018-06-17T05:45:51.272Z,52.48
2018-06-17T05:48:20.943Z,52.79
2018-06-17T05:50:50.904Z,52.32
2018-06-17T05:53:29.936Z,52.43
2018-06-17T05:55:59.805Z,52.97
2018-06-17T05:58:29.595Z,51.93
2018-06-17T06:01:01.316Z,51.35
2018-06-17T06:03:31.736Z,52.99
2018-06-17T06:06:02.326Z,51.86
2018-06-17T06:08:32.013Z,51.67
2018-06-17T06:11:01.447Z,52.53
2018-06-17T06:13:31.835Z,51.62
2018-06-17T06:16:01.645Z,51.77
2018-06-17T06:18:31.594Z,51.55
2018-06-17T06:21:01.257Z,52.56
2018-06-17T06:26:06.553Z,51.95
2018-06-17T06:28:36.423Z,51.02
2018-06-17T06:31:06.501Z,50.67
2018-06-17T06:33:37.608Z,51.68
2018-06-17T06:36:15.425Z,50.92
2018-06-17T06:38:45.969Z,50.18
2018-06-17T06:41:16.662Z,49.22
2018-06-17T06:43:46.705Z,49.37
2018-06-17T06:46:16.557Z,50.20
2018-06-17T06:48:46.521Z,50.19
2018-06-17T06:51:17.161Z,48.46
2018-06-17T06:53:47.627Z,49.65
2018-06-17T06:56:17.729Z,49.49
2018-06-17T06:58:49.189Z,48.04
2018-06-17T07:01:30.164Z,48.13
2018-06-17T07:05:08.362Z,48.16
2018-06-17T07:07:43.313Z,49.29
2018-06-17T07:10:24.896Z,49.28
2018-06-17T07:12:54.847Z,47.12
2018-06-17T07:15:37.131Z,47.12
2018-06-17T07:18:18.204Z,47.10
2018-06-17T07:20:48.037Z,46.33
2018-06-17T07:23:17.714Z,45.91
2018-06-17T07:29:01.940Z,47.14
2018-06-17T07:31:31.644Z,46.21
2018-06-17T07:34:01.792Z,46.92
2018-06-17T07:36:31.209Z,46.13
2018-06-17T07:39:01.922Z,45.75
2018-06-17T07:41:31.378Z,44.92
2018-06-17T07:44:01.020Z,44.50
2018-06-17T07:46:30.849Z,44.40
2018-06-17T07:49:38.087Z,44.45
2018-06-17T07:52:19.442Z,43.21
2018-06-17T07:54:49.980Z,44.79
2018-06-17T07:57:21.729Z,44.29
2018-06-17T07:59:51.266Z,43.00
2018-06-17T08:02:20.772Z,43.06
2018-06-17T08:04:50.432Z,42.31
2018-06-17T08:07:19.940Z,39.43
2018-06-17T08:09:50.219Z,41.07
2018-06-17T08:12:19.765Z,39.63
2018-06-17T08:14:49.265Z,38.11
2018-06-17T08:17:18.672Z,38.50
2018-06-17T08:19:48.209Z,38.67
2018-06-17T08:22:17.993Z,40.96
2018-06-17T08:24:47.486Z,38.79
2018-06-17T08:27:16.915Z,40.48
2018-06-17T08:29:46.616Z,38.28
2018-06-17T08:32:16.121Z,39.40
2018-06-17T08:34:45.262Z,38.02
2018-06-17T08:37:14.607Z,38.51
2018-06-17T08:39:44.214Z,36.96
2018-06-17T08:42:13.894Z,37.03
2018-06-17T08:44:43.868Z,34.99
2018-06-17T08:47:13.597Z,36.21
2018-06-17T08:49:43.330Z,38.18
2018-06-17T08:52:12.785Z,37.04
2018-06-17T08:54:42.660Z,33.65
2018-06-17T08:57:12.217Z,35.48
2018-06-17T08:59:41.797Z,36.84
2018-06-17T09:02:11.531Z,36.85
2018-06-17T09:04:41.305Z,34.73
2018-06-17T09:07:12.157Z,33.19
2018-06-17T09:09:41.927Z,37.14
2018-06-17T09:12:11.522Z,35.98
2018-06-17T09:14:41.157Z,33.61
2018-06-17T09:17:10.581Z,35.78
2018-06-17T09:19:40.594Z,34.84
2018-06-17T09:22:10.133Z,33.50
2018-06-17T09:24:39.787Z,34.76
2018-06-17T09:27:09.575Z,31.96
2018-06-17T09:32:14.523Z,32.41
2018-06-17T09:34:44.957Z,33.79
2018-06-17T09:37:14.542Z,33.64
2018-06-17T09:39:44.137Z,32.83
2018-06-17T09:42:13.778Z,33.39
2018-06-17T09:44:44.294Z,32.28
2018-06-17T09:47:14.287Z,32.16
2018-06-17T09:49:44.111Z,33.55
2018-06-17T09:52:13.723Z,32.23
2018-06-17T09:54:43.253Z,31.26
2018-06-17T09:57:13.638Z,29.41
2018-06-17T09:59:43.306Z,32.13
2018-06-17T10:02:13.094Z,32.38
2018-06-17T10:04:42.987Z,34.75
2018-06-17T10:07:12.768Z,31.48
2018-06-17T10:09:51.041Z,30.73
2018-06-17T10:12:20.384Z,33.18
2018-06-17T10:14:50.376Z,30.71
2018-06-17T10:17:20.205Z,32.72
2018-06-17T10:19:50.378Z,29.62
2018-06-17T10:22:20.214Z,31.95
2018-06-17T10:24:49.980Z,31.40
2018-06-17T10:27:19.687Z,29.25
2018-06-17T10:29:49.684Z,32.49
2018-06-17T10:32:25.691Z,31.89
2018-06-17T10:34:55.476Z,32.37
2018-06-17T10:37:25.310Z,33.41
2018-06-17T10:39:54.948Z,32.24
2018-06-17T10:42:24.547Z,33.77
2018-06-17T10:44:54.400Z,32.60
2018-06-17T10:47:24.922Z,33.40
2018-06-17T10:49:54.476Z,31.61
2018-06-17T10:52:23.909Z,31.30
2018-06-17T10:54:53.276Z,32.25
2018-06-17T10:57:22.763Z,32.00
2018-06-17T10:59:52.349Z,32.74
2018-06-17T11:02:22.029Z,34.12
2018-06-17T11:04:51.744Z,34.66
2018-06-17T11:07:21.599Z,33.83
2018-06-17T11:09:51.298Z,33.61
2018-06-17T11:12:20.919Z,33.61
2018-06-17T11:14:50.561Z,32.97
2018-06-17T11:17:20.220Z,33.24
2018-06-17T11:19:49.875Z,32.67
2018-06-17T11:22:19.526Z,32.39
2018-06-17T11:24:49.136Z,33.22
2018-06-17T11:27:18.464Z,34.25
2018-06-17T11:29:47.924Z,32.76
2018-06-17T11:32:17.548Z,33.80
2018-06-17T11:37:29.826Z,29.65
2018-06-17T11:39:59.428Z,31.09
2018-06-17T11:42:29.996Z,32.58
2018-06-17T11:45:00.051Z,31.68
2018-06-17T11:47:29.690Z,33.05
2018-06-17T11:50:00.325Z,36.23
2018-06-17T11:52:30.273Z,35.22
2018-06-17T11:54:59.943Z,33.69
2018-06-17T11:57:29.732Z,35.54
2018-06-17T11:59:59.516Z,35.21
2018-06-17T12:02:29.192Z,34.95
2018-06-17T12:04:58.790Z,37.10
2018-06-17T12:07:28.535Z,35.72
2018-06-17T12:09:58.283Z,36.02
2018-06-17T12:12:31.126Z,36.36
2018-06-17T12:15:00.967Z,36.79
2018-06-17T12:17:30.565Z,37.54
2018-06-17T12:20:00.086Z,36.47
2018-06-17T12:22:29.799Z,38.42
2018-06-17T12:24:59.614Z,39.79
2018-06-17T12:27:29.408Z,41.61
2018-06-17T12:29:59.348Z,42.19
2018-06-17T12:32:28.992Z,42.20
2018-06-17T12:34:58.759Z,42.23
2018-06-17T12:37:28.497Z,43.25
2018-06-17T12:39:59.048Z,43.20
2018-06-17T12:42:35.516Z,44.19
2018-06-17T12:45:05.390Z,43.47
2018-06-17T12:47:35.256Z,43.13
2018-06-17T12:52:40.074Z,45.73
2018-06-17T12:55:16.233Z,44.84
2018-06-17T12:57:45.652Z,45.88
2018-06-17T13:00:15.090Z,46.34
2018-06-17T13:02:44.796Z,45.49
2018-06-17T13:05:14.424Z,46.04
2018-06-17T13:07:44.013Z,46.48
2018-06-17T13:10:13.924Z,45.89
2018-06-17T13:12:43.864Z,46.22
2018-06-17T13:15:14.148Z,47.04
2018-06-17T13:17:43.802Z,46.09
2018-06-17T13:20:13.747Z,46.78
2018-06-17T13:22:43.942Z,47.75
2018-06-17T13:25:13.382Z,45.85
2018-06-17T13:27:43.913Z,46.61
2018-06-17T13:30:13.588Z,47.57
2018-06-17T13:32:43.654Z,46.87
2018-06-17T13:35:15.011Z,43.98
2018-06-17T13:37:44.806Z,44.53
2018-06-17T13:40:14.480Z,43.66
2018-06-17T13:42:44.206Z,42.91
2018-06-17T13:45:13.901Z,43.35
2018-06-17T13:47:43.536Z,43.76
2018-06-17T13:50:13.285Z,42.95
2018-06-17T13:52:42.922Z,44.98
2018-06-17T13:55:13.553Z,43.86
2018-06-17T13:57:43.219Z,43.82
2018-06-17T14:00:13.036Z,42.06
2018-06-17T14:02:43.284Z,42.77
2018-06-17T14:05:13.039Z,43.46
2018-06-17T14:07:42.689Z,42.13
2018-06-17T14:10:12.479Z,41.85
2018-06-17T14:12:42.179Z,41.94
2018-06-17T14:15:12.332Z,43.46
2018-06-17T14:17:41.912Z,43.94
2018-06-17T14:20:11.510Z,45.01
2018-06-17T14:22:41.533Z,42.06
2018-06-17T14:25:11.264Z,41.56
2018-06-17T14:27:40.913Z,43.29
2018-06-17T14:30:11.293Z,43.20
2018-06-17T14:32:40.879Z,45.77
2018-06-17T14:35:10.236Z,43.76
2018-06-17T14:40:14.818Z,45.51
2018-06-17T14:42:49.881Z,44.31
2018-06-17T14:45:24.805Z,44.23
2018-06-17T14:47:59.308Z,45.02
2018-06-17T14:50:35.437Z,45.08
2018-06-17T14:53:07.149Z,43.57
2018-06-17T14:55:36.795Z,44.67
2018-06-17T14:58:06.482Z,45.26
2018-06-17T15:00:36.262Z,44.62
2018-06-17T15:03:05.918Z,45.28
2018-06-17T15:05:35.597Z,45.70
2018-06-17T15:08:05.265Z,46.48
2018-06-17T15:10:35.024Z,45.58
2018-06-17T15:13:04.783Z,47.35
2018-06-17T15:15:34.441Z,47.86
2018-06-17T15:18:04.834Z,48.58
2018-06-17T15:20:35.207Z,47.25
2018-06-17T15:23:05.512Z,48.38
2018-06-17T15:25:35.157Z,47.65
2018-06-17T15:28:04.830Z,49.84
2018-06-17T15:30:34.669Z,47.52
2018-06-17T15:33:09.667Z,47.25
2018-06-17T15:35:44.505Z,47.67
2018-06-17T15:38:19.260Z,47.82
2018-06-17T15:40:54.154Z,48.78
2018-06-17T15:43:23.736Z,48.26
2018-06-17T15:45:53.430Z,48.82
2018-06-17T15:48:23.055Z,48.43
2018-06-17T15:50:52.952Z,48.61
2018-06-17T15:53:22.564Z,48.62
2018-06-17T15:55:52.228Z,48.36
2018-06-17T15:58:23.052Z,47.43
2018-06-17T16:00:52.704Z,45.91
2018-06-17T16:03:22.316Z,45.80
2018-06-17T16:05:52.010Z,47.08
2018-06-17T16:08:22.337Z,47.62
2018-06-17T16:10:52.695Z,46.98
2018-06-17T16:13:27.681Z,47.76
2018-06-17T16:16:02.450Z,46.48
2018-06-17T16:20:40.856Z,46.05
2018-06-17T16:23:10.759Z,45.92
2018-06-17T16:25:40.421Z,46.62
2018-06-17T16:28:10.117Z,46.69
2018-06-17T16:30:39.796Z,47.74
2018-06-17T16:33:10.185Z,47.93
2018-06-17T16:35:39.933Z,46.29
2018-06-17T16:38:11.073Z,47.41
2018-06-17T16:40:40.625Z,47.04
2018-06-17T16:43:11.445Z,46.32
2018-06-17T16:45:41.184Z,46.00
2018-06-17T16:48:10.846Z,46.06
2018-06-17T16:50:42.849Z,46.16
2018-06-17T16:53:17.559Z,44.89
2018-06-17T16:55:52.592Z,46.66
2018-06-17T16:58:27.649Z,45.61
2018-06-17T17:00:57.308Z,46.37
2018-06-17T17:03:27.045Z,49.76
2018-06-17T17:05:56.759Z,47.56
2018-06-17T17:11:02.363Z,46.39
2018-06-17T17:13:32.080Z,47.56
2018-06-17T17:16:08.837Z,47.84
2018-06-17T17:18:38.407Z,47.98
2018-06-17T17:21:08.020Z,47.46
2018-06-17T17:23:37.729Z,47.87
2018-06-17T17:26:07.348Z,49.11
2018-06-17T17:28:37.122Z,48.63
2018-06-17T17:31:06.535Z,49.09
2018-06-17T17:36:21.685Z,48.33
2018-06-17T17:38:56.857Z,50.30
2018-06-17T17:41:27.957Z,49.39
2018-06-17T17:43:58.251Z,49.69
2018-06-17T17:47:35.227Z,49.61
2018-06-17T17:50:04.873Z,51.51
2018-06-17T17:52:34.494Z,51.14
2018-06-17T17:55:04.242Z,50.99
2018-06-17T17:57:34.664Z,50.53
2018-06-17T18:00:04.527Z,50.22
2018-06-17T18:02:34.203Z,50.60
2018-06-17T18:05:03.853Z,50.56
2018-06-17T18:07:34.009Z,49.75
2018-06-17T18:10:03.699Z,50.02
2018-06-17T18:15:09.916Z,48.96
2018-06-17T18:17:39.776Z,49.53
2018-06-17T18:20:09.542Z,49.11
2018-06-17T18:22:40.041Z,48.51
2018-06-17T18:25:16.072Z,47.82
2018-06-17T18:27:51.025Z,48.09
2018-06-17T18:30:26.211Z,48.91
2018-06-17T18:35:03.845Z,48.12
2018-06-17T18:37:33.623Z,49.90
2018-06-17T18:40:03.354Z,48.98
2018-06-17T18:42:33.415Z,50.15
2018-06-17T18:45:03.117Z,49.18
2018-06-17T18:47:33.104Z,49.53
2018-06-17T18:50:03.108Z,49.24
2018-06-17T18:52:33.019Z,49.30
2018-06-17T18:55:02.595Z,49.46
2018-06-17T18:57:32.344Z,49.37
2018-06-17T19:00:02.058Z,49.76
2018-06-17T19:02:31.772Z,49.73
2018-06-17T19:05:01.556Z,49.71
2018-06-17T19:07:31.205Z,50.20
2018-06-17T19:10:06.112Z,49.11
2018-06-17T19:12:41.087Z,50.20
2018-06-17T19:15:16.061Z,50.22
2018-06-17T19:17:51.119Z,49.75
2018-06-17T19:20:20.787Z,50.35
2018-06-17T19:22:50.475Z,50.23
2018-06-17T19:25:20.193Z,50.62
2018-06-17T19:27:49.815Z,51.04
2018-06-17T19:30:19.553Z,51.06
2018-06-17T19:32:53.264Z,52.31
2018-06-17T19:35:23.012Z,53.02
2018-06-17T19:37:52.755Z,51.12
2018-06-17T19:40:22.410Z,52.43
2018-06-17T19:42:52.034Z,51.46
2018-06-17T19:45:22.909Z,49.88
2018-06-17T19:47:53.216Z,49.09
2018-06-17T19:50:28.144Z,47.28
2018-06-17T19:53:03.251Z,48.31
2018-06-17T19:55:38.174Z,48.40
2018-06-17T19:58:14.098Z,48.77
2018-06-17T20:00:46.123Z,48.97
2018-06-17T20:03:15.746Z,49.51
2018-06-17T20:05:45.414Z,49.04
2018-06-17T20:08:15.077Z,49.70
2018-06-17T20:10:44.749Z,48.98
2018-06-17T20:13:15.325Z,49.27
2018-06-17T20:15:45.045Z,48.91
2018-06-17T20:18:15.238Z,47.64
2018-06-17T20:20:44.649Z,47.37
2018-06-17T20:23:14.630Z,48.83
2018-06-17T20:25:44.504Z,49.89
2018-06-17T20:28:13.974Z,51.06
2018-06-17T20:30:43.677Z,52.38
2018-06-17T20:33:18.812Z,52.19
2018-06-17T20:35:53.492Z,52.99
2018-06-17T20:40:29.836Z,53.10
2018-06-17T20:43:04.616Z,54.19
2018-06-17T20:45:34.646Z,52.40
2018-06-17T20:48:04.312Z,52.61
2018-06-17T20:50:34.083Z,51.44
2018-06-17T20:53:03.813Z,50.75
2018-06-17T20:55:33.588Z,51.27
2018-06-17T20:58:03.329Z,51.51
2018-06-17T21:03:08.694Z,51.78
2018-06-17T21:05:38.144Z,52.46
2018-06-17T21:08:09.805Z,52.59
2018-06-17T21:10:39.477Z,53.86
2018-06-17T21:15:44.649Z,55.66
2018-06-17T21:20:48.560Z,55.42
2018-06-17T21:23:23.568Z,54.14
2018-06-17T21:25:58.695Z,53.67
2018-06-17T21:28:28.799Z,54.56
2018-06-17T21:30:58.548Z,54.01
2018-06-17T21:33:28.292Z,54.23
2018-06-17T21:35:58.423Z,54.38
2018-06-17T21:38:28.187Z,54.24
2018-06-17T21:40:57.852Z,54.65
2018-06-17T21:43:27.481Z,54.23
2018-06-17T21:45:57.247Z,54.44
2018-06-17T21:48:27.009Z,53.90
2018-06-17T21:50:56.660Z,53.64
2018-06-17T21:53:26.391Z,53.26
2018-06-17T21:55:56.077Z,54.47
2018-06-17T21:58:31.095Z,54.72
2018-06-17T22:01:01.834Z,55.00
2018-06-17T22:03:33.142Z,55.10
2018-06-17T22:06:02.750Z,54.48
2018-06-17T22:08:37.706Z,54.51
2018-06-17T22:11:12.649Z,54.69
2018-06-17T22:13:47.269Z,55.46
2018-06-17T22:16:21.976Z,55.35
2018-06-17T22:18:51.659Z,54.14
2018-06-17T22:21:21.287Z,54.63
2018-06-17T22:23:50.944Z,54.52
2018-06-17T22:26:20.646Z,55.31
2018-06-17T22:28:50.095Z,55.05
2018-06-17T22:31:19.655Z,55.36
2018-06-17T22:33:48.998Z,55.40
2018-06-17T22:36:18.530Z,55.75
2018-06-17T22:38:48.176Z,55.63
2018-06-17T22:41:17.503Z,56.26
2018-06-17T22:43:47.166Z,56.38
2018-06-17T22:46:16.839Z,56.45
2018-06-17T22:48:46.954Z,56.61
2018-06-17T22:51:16.579Z,56.98
2018-06-17T22:53:57.540Z,56.65
2018-06-17T22:59:13.432Z,57.60
2018-06-17T23:01:48.135Z,57.71
2018-06-17T23:04:23.965Z,58.89
2018-06-17T23:06:58.649Z,58.28
2018-06-17T23:09:32.846Z,57.69
2018-06-17T23:12:02.373Z,59.11
2018-06-17T23:14:37.708Z,58.19
2018-06-17T23:17:07.481Z,57.45
2018-06-17T23:19:37.188Z,57.30
2018-06-17T23:22:07.257Z,56.76
2018-06-17T23:24:37.336Z,56.64
2018-06-17T23:27:11.424Z,56.19
2018-06-17T23:29:41.539Z,56.40
2018-06-17T23:32:11.212Z,55.54
2018-06-17T23:34:40.876Z,54.66
2018-06-17T23:37:11.285Z,52.66
2018-06-17T23:39:40.891Z,52.53
2018-06-17T23:42:10.710Z,52.25
2018-06-17T23:44:40.409Z,52.06
2018-06-17T23:47:15.834Z,52.76
2018-06-17T23:49:50.737Z,52.64
2018-06-17T23:52:25.419Z,51.41
2018-06-17T23:57:35.722Z,51.10
